Time;durP1;ratioP1;P1;durP2;ratioP2;P2;SDS_P1;SDS_P2;PMS_P1;PMS_P2;Temp;Humidity;BMP_temperature;BMP_pressure;BME280_temperature;BME280_humidity;BME280_pressure;Samples;Min_cycle;Max_cycle;Signal;HPM_P1;HPM_P2
2023/09/27 00:00:32;;;;;;;0.20;0.20;;;;;;;11.81;100.00;101835.88;5115754;28;20015;-39
2023/09/27 00:02:58;;;;;;;0.10;0.10;;;;;;;11.85;100.00;101843.81;5116805;28;20031;-41
2023/09/27 00:05:24;;;;;;;0.20;0.20;;;;;;;11.84;100.00;101851.53;5116557;28;20034;-39
2023/09/27 00:07:51;;;;;;;0.10;0.10;;;;;;;11.86;100.00;101843.00;5116003;28;20024;-41
2023/09/27 00:10:17;;;;;;;0.10;0.10;;;;;;;11.92;100.00;101859.56;5116643;28;20053;-39
2023/09/27 00:12:42;;;;;;;0.10;0.10;;;;;;;11.90;100.00;101858.63;5116859;28;20060;-41
2023/09/27 00:15:09;;;;;;;0.10;0.10;;;;;;;11.92;100.00;101851.81;5115755;28;20016;-40
2023/09/27 00:17:35;;;;;;;0.20;0.20;;;;;;;11.96;100.00;101856.31;5116295;28;20471;-40
2023/09/27 00:20:00;;;;;;;0.10;0.10;;;;;;;12.06;100.00;101858.47;5116412;28;20034;-40
2023/09/27 00:22:27;;;;;;;0.10;0.10;;;;;;;12.16;100.00;101854.50;5115510;28;20039;-40
2023/09/27 00:24:52;;;;;;;0.20;0.20;;;;;;;12.14;100.00;101859.63;5116202;28;20035;-41
2023/09/27 00:27:17;;;;;;;0.10;0.10;;;;;;;12.16;100.00;101862.25;5116372;28;20107;-40
2023/09/27 00:29:43;;;;;;;0.10;0.10;;;;;;;12.11;100.00;101862.09;5115553;28;20031;-40
2023/09/27 00:32:08;;;;;;;0.20;0.20;;;;;;;12.08;100.00;101851.63;5116271;28;20020;-40
2023/09/27 00:34:34;;;;;;;0.10;0.10;;;;;;;12.04;100.00;101854.03;5115849;28;20078;-40
2023/09/27 00:37:00;;;;;;;0.10;0.10;;;;;;;12.03;100.00;101853.16;5115522;28;20037;-40
2023/09/27 00:39:25;;;;;;;0.20;0.20;;;;;;;12.04;100.00;101852.34;5115993;28;20020;-40
2023/09/27 00:41:50;;;;;;;0.10;0.10;;;;;;;12.03;100.00;101853.16;5115486;28;20031;-40
2023/09/27 00:44:16;;;;;;;0.13;0.13;;;;;;;12.04;100.00;101864.38;5115672;28;20024;-43
2023/09/27 00:46:42;;;;;;;0.20;0.20;;;;;;;12.01;100.00;101852.22;5115915;28;20028;-40
2023/09/27 00:49:08;;;;;;;0.20;0.20;;;;;;;12.04;100.00;101842.00;5115273;28;20038;-41
2023/09/27 00:51:34;;;;;;;0.10;0.10;;;;;;;11.99;100.00;101846.09;5115437;28;20386;-45
2023/09/27 00:54:00;;;;;;;0.20;0.20;;;;;;;11.97;100.00;101842.59;5115026;28;20034;-41
2023/09/27 00:56:25;;;;;;;0.20;0.20;;;;;;;12.01;100.00;101845.34;5114484;28;20406;-41
2023/09/27 00:58:52;;;;;;;0.10;0.10;;;;;;;11.92;100.00;101844.94;5115762;28;20069;-41
2023/09/27 01:01:17;;;;;;;0.10;0.10;;;;;;;11.93;100.00;101846.72;5115225;28;20043;-43
2023/09/27 01:03:43;;;;;;;0.10;0.10;;;;;;;11.95;100.00;101841.59;5114724;28;20058;-43
2023/09/27 01:06:10;;;;;;;0.10;0.10;;;;;;;11.93;100.00;101848.41;5115726;28;20043;-43
2023/09/27 01:08:35;;;;;;;0.10;0.10;;;;;;;11.90;100.00;101846.56;5115352;28;20125;-42
2023/09/27 01:11:04;;;;;;;0.10;0.10;;;;;;;11.83;100.00;101844.59;5114508;28;20036;-45
2023/09/27 01:13:29;;;;;;;0.10;0.10;;;;;;;11.72;100.00;101841.53;5115110;28;20028;-42
2023/09/27 01:15:55;;;;;;;0.10;0.10;;;;;;;11.71;100.00;101839.81;5115246;28;20031;-42
2023/09/27 01:18:20;;;;;;;0.10;0.10;;;;;;;11.75;100.00;101841.69;5114333;28;20028;-42
2023/09/27 01:20:45;;;;;;;0.13;0.13;;;;;;;11.78;100.00;101844.38;5115172;28;20424;-43
2023/09/27 01:23:11;;;;;;;0.20;0.20;;;;;;;11.80;100.00;101834.09;5115384;28;20031;-41
2023/09/27 01:25:38;;;;;;;0.20;0.20;;;;;;;11.78;100.00;101828.88;5114493;28;20382;-42
2023/09/27 01:28:08;;;;;;;0.20;0.20;;;;;;;11.75;100.00;101814.97;5115318;28;20391;-41
2023/09/27 01:30:34;;;;;;;0.10;0.10;;;;;;;11.75;100.00;101805.53;5114812;28;20024;-40
2023/09/27 01:33:10;;;;;;;0.13;0.13;;;;;;;11.75;100.00;101815.88;5114372;28;20022;-42
2023/09/27 01:35:38;;;;;;;0.20;0.20;;;;;;;11.59;100.00;101808.31;5114835;28;20055;-44
2023/09/27 01:38:05;;;;;;;0.13;0.13;;;;;;;11.59;100.00;101810.88;5114025;28;20019;-41
2023/09/27 01:40:31;;;;;;;0.15;0.15;;;;;;;11.57;100.00;101795.34;5114626;28;20072;-42
2023/09/27 01:43:00;;;;;;;0.10;0.10;;;;;;;11.63;100.00;101795.59;5114741;28;20035;-41
2023/09/27 01:45:26;;;;;;;0.20;0.20;;;;;;;11.63;100.00;101794.69;5113593;28;20061;-42
2023/09/27 01:47:52;;;;;;;0.10;0.10;;;;;;;11.60;100.00;101800.63;5114885;28;20088;-43
2023/09/27 01:50:24;;;;;;;0.13;0.13;;;;;;;11.67;100.00;101802.66;5114551;28;20480;-44
2023/09/27 01:52:53;;;;;;;0.10;0.10;;;;;;;11.57;100.00;101805.66;5114042;28;20020;-43
2023/09/27 01:55:19;;;;;;;0.20;0.20;;;;;;;11.46;100.00;101812.94;5114363;28;20055;-42
2023/09/27 01:57:47;;;;;;;0.15;0.15;;;;;;;11.48;100.00;101813.91;5114346;28;20085;-44
2023/09/27 02:00:15;;;;;;;0.10;0.10;;;;;;;11.45;100.00;101820.63;5113445;28;20066;-41
2023/09/27 02:02:41;;;;;;;0.10;0.10;;;;;;;11.41;100.00;101817.03;5114567;28;20065;-44
2023/09/27 02:05:08;;;;;;;0.17;0.17;;;;;;;11.41;100.00;101814.47;5113760;28;20026;-45
2023/09/27 02:07:38;;;;;;;0.10;0.10;;;;;;;11.38;100.00;101809.19;5112921;28;20034;-42
2023/09/27 02:10:04;;;;;;;0.10;0.10;;;;;;;11.44;100.00;101812.03;5114281;28;20031;-46
2023/09/27 02:12:30;;;;;;;0.10;0.10;;;;;;;11.38;100.00;101810.91;5114097;28;20028;-41
2023/09/27 02:14:55;;;;;;;0.10;0.10;;;;;;;11.32;100.00;101806.34;5113757;28;20084;-43
2023/09/27 02:17:20;;;;;;;0.20;0.20;;;;;;;11.36;100.00;101806.53;5113857;28;20023;-45
2023/09/27 02:19:46;;;;;;;0.20;0.20;;;;;;;11.31;100.00;101801.97;5114230;28;20103;-45
2023/09/27 02:22:11;;;;;;;0.20;0.20;;;;;;;11.23;100.00;101813.69;5113224;28;20046;-41
2023/09/27 02:24:36;;;;;;;0.10;0.10;;;;;;;11.22;100.00;101815.41;5113962;28;20043;-41
2023/09/27 02:27:02;;;;;;;0.10;0.10;;;;;;;11.01;100.00;101812.78;5113878;28;20020;-45
2023/09/27 02:29:27;;;;;;;0.10;0.10;;;;;;;11.05;100.00;101812.09;5112776;28;20077;-42
2023/09/27 02:31:53;;;;;;;0.20;0.20;;;;;;;11.00;100.00;101814.47;5113891;28;20114;-44
2023/09/27 02:34:18;;;;;;;0.20;0.20;;;;;;;10.99;100.00;101814.41;5112856;28;20016;-43
2023/09/27 02:36:45;;;;;;;0.20;0.20;;;;;;;11.00;100.00;101814.47;5114036;28;20069;-42
2023/09/27 02:39:10;;;;;;;0.20;0.20;;;;;;;10.99;100.00;101810.13;5114003;28;20035;-44
2023/09/27 02:41:36;;;;;;;0.10;0.10;;;;;;;10.98;100.00;101812.66;5112796;28;20035;-42
2023/09/27 02:44:01;;;;;;;0.20;0.20;;;;;;;10.91;100.00;101818.34;5113812;28;20067;-44
2023/09/27 02:46:26;;;;;;;0.20;0.20;;;;;;;10.92;100.00;101822.69;5113331;28;20027;-42
2023/09/27 02:48:52;;;;;;;0.20;0.20;;;;;;;10.87;100.00;101810.47;5112839;28;20024;-44
2023/09/27 02:51:17;;;;;;;0.20;0.20;;;;;;;10.74;100.00;101818.47;5113416;28;20138;-42
2023/09/27 02:53:44;;;;;;;0.10;0.10;;;;;;;10.71;100.00;101823.50;5113748;28;20466;-42
2023/09/27 02:56:11;;;;;;;0.10;0.10;;;;;;;10.73;100.00;101814.16;5112602;28;20386;-44
2023/09/27 02:58:37;;;;;;;0.20;0.20;;;;;;;10.75;100.00;101809.06;5113267;28;20394;-43
2023/09/27 03:01:02;;;;;;;0.20;0.20;;;;;;;10.73;100.00;101811.59;5113549;28;20027;-43
2023/09/27 03:03:27;;;;;;;0.13;0.13;;;;;;;10.69;100.00;101815.72;5112254;28;20020;-43
2023/09/27 03:05:53;;;;;;;0.10;0.10;;;;;;;10.66;100.00;101815.56;5113638;28;20024;-42
2023/09/27 03:08:18;;;;;;;0.20;0.20;;;;;;;10.72;100.00;101807.22;5113145;28;20020;-45
2023/09/27 03:10:43;;;;;;;0.10;0.10;;;;;;;10.80;100.00;101807.56;5112428;28;20039;-42
2023/09/27 03:13:09;;;;;;;0.10;0.10;;;;;;;10.71;100.00;101802.88;5113494;28;20028;-43
2023/09/27 03:15:35;;;;;;;0.20;0.20;;;;;;;10.65;100.00;101806.09;5113116;28;20441;-41
2023/09/27 03:18:02;;;;;;;0.10;0.10;;;;;;;10.70;100.00;101812.31;5112116;28;20032;-45
2023/09/27 03:20:28;;;;;;;0.20;0.20;;;;;;;10.81;100.00;101811.91;5112938;28;20102;-42
2023/09/27 03:22:53;;;;;;;0.17;0.17;;;;;;;10.76;100.00;101811.69;5113126;28;20115;-44
2023/09/27 03:25:18;;;;;;;0.10;0.10;;;;;;;10.66;100.00;101810.41;5112001;28;20055;-41
2023/09/27 03:27:44;;;;;;;0.17;0.17;;;;;;;10.73;100.00;101810.69;5113431;28;20016;-44
2023/09/27 03:30:10;;;;;;;0.20;0.20;;;;;;;10.70;100.00;101814.00;5113203;28;20369;-41
2023/09/27 03:32:36;;;;;;;0.10;0.10;;;;;;;10.69;100.00;101826.03;5112208;28;20586;-43
2023/09/27 03:35:01;;;;;;;0.20;0.20;;;;;;;10.68;100.00;101829.41;5113149;28;20035;-42
2023/09/27 03:37:27;;;;;;;0.10;0.10;;;;;;;10.66;100.00;101827.56;5112837;28;20024;-42
2023/09/27 03:39:52;;;;;;;0.20;0.20;;;;;;;10.64;100.00;101834.34;5112233;28;20042;-41
2023/09/27 03:42:19;;;;;;;0.10;0.10;;;;;;;10.60;100.00;101835.03;5112910;28;20023;-43
2023/09/27 03:44:44;;;;;;;0.20;0.20;;;;;;;10.44;100.00;101839.47;5112148;28;20390;-42
2023/09/27 03:47:11;;;;;;;0.13;0.13;;;;;;;10.50;100.00;101836.31;5113099;28;20023;-44
2023/09/27 03:49:36;;;;;;;0.20;0.20;;;;;;;10.52;100.00;101825.28;5113114;28;20027;-43
2023/09/27 03:52:02;;;;;;;0.10;0.10;;;;;;;10.47;100.00;101829.34;5112171;28;20077;-44
2023/09/27 03:54:27;;;;;;;0.17;0.17;;;;;;;10.52;100.00;101817.53;5112513;28;20030;-43
2023/09/27 03:56:54;;;;;;;0.20;0.20;;;;;;;10.54;100.00;101815.03;5112914;28;20044;-44
2023/09/27 03:59:19;;;;;;;0.20;0.20;;;;;;;10.38;100.00;101814.31;5111777;28;20533;-44
2023/09/27 04:01:45;;;;;;;0.20;0.20;;;;;;;10.43;100.00;101818.78;5112934;28;20016;-41
2023/09/27 04:04:11;;;;;;;0.10;0.10;;;;;;;10.46;100.00;101824.13;5112673;28;20474;-41
2023/09/27 04:06:36;;;;;;;0.20;0.20;;;;;;;10.32;100.00;101829.47;5112038;28;20055;-42
2023/09/27 04:09:02;;;;;;;0.10;0.10;;;;;;;10.22;100.00;101837.56;5112773;28;20375;-46
2023/09/27 04:11:27;;;;;;;0.10;0.10;;;;;;;10.27;100.00;101848.97;5112636;28;20076;-43
2023/09/27 04:13:52;;;;;;;0.20;0.20;;;;;;;10.17;100.00;101855.41;5112556;28;20111;-43
2023/09/27 04:16:18;;;;;;;0.20;0.20;;;;;;;10.18;100.00;101857.16;5112295;28;20019;-42
2023/09/27 04:18:43;;;;;;;0.20;0.20;;;;;;;10.24;100.00;101856.56;5112627;28;20024;-42
2023/09/27 04:21:09;;;;;;;0.15;0.15;;;;;;;10.21;100.00;101844.44;5111874;28;20391;-43
2023/09/27 04:23:36;;;;;;;0.10;0.10;;;;;;;10.18;100.00;101838.25;5112113;28;20076;-44
2023/09/27 04:26:05;;;;;;;0.10;0.10;;;;;;;10.33;100.00;101841.53;5113037;28;20015;-42
2023/09/27 04:28:30;;;;;;;0.10;0.10;;;;;;;10.27;100.00;101851.56;5111802;28;20266;-44
2023/09/27 04:30:56;;;;;;;0.17;0.17;;;;;;;10.24;100.00;101858.25;5116479;28;20027;-46
2023/09/27 04:33:21;;;;;;;0.20;0.20;;;;;;;10.29;100.00;101864.50;5116002;28;20027;-45
2023/09/27 04:35:47;;;;;;;0.10;0.10;;;;;;;10.25;100.00;101862.59;5115257;28;20531;-41
2023/09/27 04:38:13;;;;;;;0.20;0.20;;;;;;;10.28;100.00;101868.78;5115676;28;20059;-42
2023/09/27 04:40:38;;;;;;;0.20;0.20;;;;;;;10.29;100.00;101872.22;5116246;28;20030;-44
2023/09/27 04:43:04;;;;;;;0.20;0.20;;;;;;;10.28;100.00;101871.34;5115315;28;20024;-42
2023/09/27 04:45:29;;;;;;;0.10;0.10;;;;;;;10.35;100.00;101869.94;5115886;28;20374;-44
2023/09/27 04:47:54;;;;;;;0.20;0.20;;;;;;;10.18;100.00;101872.59;5115283;28;20395;-42
2023/09/27 04:50:20;;;;;;;0.20;0.20;;;;;;;10.28;100.00;101857.59;5115606;28;20482;-42
2023/09/27 04:52:45;;;;;;;0.20;0.20;;;;;;;10.36;100.00;101833.09;5115877;28;20028;-42
2023/09/27 04:55:12;;;;;;;0.20;0.20;;;;;;;10.38;100.00;101823.75;5115138;28;20032;-42
2023/09/27 04:57:38;;;;;;;0.20;0.20;;;;;;;10.33;100.00;101840.66;5115554;28;20050;-41
2023/09/27 05:00:04;;;;;;;0.10;0.10;;;;;;;10.32;100.00;101854.34;5115600;28;20027;-43
2023/09/27 05:02:29;;;;;;;0.20;0.20;;;;;;;10.30;100.00;101853.38;5114509;28;20363;-42
2023/09/27 05:04:54;;;;;;;0.20;0.20;;;;;;;10.26;100.00;101848.91;5115500;28;20602;-45
2023/09/27 05:07:20;;;;;;;0.10;0.10;;;;;;;10.21;100.00;101852.16;5115176;28;20067;-44
2023/09/27 05:09:46;;;;;;;0.20;0.20;;;;;;;10.25;100.00;101848.03;5114640;28;20098;-43
2023/09/27 05:12:13;;;;;;;0.20;0.20;;;;;;;10.25;100.00;101850.63;5115108;28;20026;-45
2023/09/27 05:14:38;;;;;;;0.20;0.20;;;;;;;10.14;100.00;101856.94;5115485;28;20050;-44
2023/09/27 05:17:04;;;;;;;0.20;0.20;;;;;;;10.14;100.00;101856.94;5114515;28;20051;-45
2023/09/27 05:19:29;;;;;;;0.20;0.20;;;;;;;10.17;100.00;101841.63;5114975;28;20020;-41
2023/09/27 05:21:55;;;;;;;0.13;0.13;;;;;;;10.16;100.00;101843.34;5115070;28;20026;-44
2023/09/27 05:24:20;;;;;;;0.20;0.20;;;;;;;10.19;100.00;101850.31;5114104;28;20085;-44
2023/09/27 05:26:46;;;;;;;0.20;0.20;;;;;;;10.17;100.00;101834.78;5115021;28;20024;-45
2023/09/27 05:29:14;;;;;;;0.20;0.20;;;;;;;10.25;100.00;101832.59;5114873;28;20062;-41
2023/09/27 05:31:40;;;;;;;0.20;0.20;;;;;;;10.23;100.00;101833.31;5114288;28;20019;-44
2023/09/27 05:34:06;;;;;;;0.20;0.20;;;;;;;10.23;100.00;101841.91;5114996;28;20068;-43
2023/09/27 05:36:32;;;;;;;0.20;0.20;;;;;;;10.20;100.00;101840.09;5114742;28;20038;-45
2023/09/27 05:38:57;;;;;;;0.20;0.20;;;;;;;10.20;100.00;101840.09;5114075;28;20020;-43
2023/09/27 05:41:22;;;;;;;0.10;0.10;;;;;;;10.17;100.00;101839.03;5114335;27;20042;-42
2023/09/27 05:43:48;;;;;;;0.10;0.10;;;;;;;10.19;100.00;101842.59;5114681;28;20027;-43
2023/09/27 05:46:13;;;;;;;0.20;0.20;;;;;;;10.18;100.00;101836.53;5113689;28;20028;-43
2023/09/27 05:48:39;;;;;;;0.10;0.10;;;;;;;10.12;100.00;101833.69;5114762;28;20595;-41
2023/09/27 05:51:05;;;;;;;0.20;0.20;;;;;;;10.13;100.00;101824.25;5114612;28;20032;-41
2023/09/27 05:53:30;;;;;;;0.20;0.20;;;;;;;10.19;100.00;101821.97;5113645;28;20027;-45
2023/09/27 05:55:56;;;;;;;0.10;0.10;;;;;;;10.18;100.00;101826.22;5114533;28;20054;-43
2023/09/27 05:58:21;;;;;;;0.20;0.20;;;;;;;10.20;100.00;101818.59;5113438;28;20023;-42
2023/09/27 06:00:47;;;;;;;0.20;0.20;;;;;;;10.18;100.00;101826.22;5114499;28;20024;-44
2023/09/27 06:03:13;;;;;;;0.20;0.20;;;;;;;10.18;100.00;101813.34;5114116;28;20031;-41
2023/09/27 06:05:39;;;;;;;0.20;0.20;;;;;;;10.19;100.00;101822.84;5113511;28;20020;-42
2023/09/27 06:08:05;;;;;;;0.20;0.20;;;;;;;10.22;100.00;101824.69;5114514;28;20031;-42
2023/09/27 06:10:30;;;;;;;0.20;0.20;;;;;;;10.26;100.00;101820.56;5114185;28;20077;-42
2023/09/27 06:12:56;;;;;;;0.20;0.20;;;;;;;10.27;100.00;101817.19;5113723;28;20020;-42
2023/09/27 06:15:21;;;;;;;0.20;0.20;;;;;;;10.36;100.00;101812.50;5113931;28;20028;-42
2023/09/27 06:17:48;;;;;;;0.13;0.13;;;;;;;10.43;100.00;101811.97;5114184;28;20026;-44
2023/09/27 06:20:20;;;;;;;0.20;0.20;;;;;;;10.49;100.00;101819.94;5112946;28;20045;-46
2023/09/27 06:22:48;;;;;;;0.10;0.10;;;;;;;10.66;100.00;101825.00;5114012;28;20379;-42
2023/09/27 06:25:15;;;;;;;0.10;0.10;;;;;;;10.71;100.00;101815.78;5113619;28;20463;-43
2023/09/27 06:27:40;;;;;;;0.20;0.20;;;;;;;10.85;100.00;101804.38;5113153;28;20059;-42
2023/09/27 06:30:08;;;;;;;0.13;0.13;;;;;;;10.96;100.00;101804.84;5114019;28;20070;-42
2023/09/27 06:32:36;;;;;;;0.20;0.20;;;;;;;11.05;100.00;101799.19;5113429;28;20106;-41
2023/09/27 06:35:10;;;;;;;0.20;0.20;;;;;;;11.16;100.00;101803.09;5113031;28;20460;-42
2023/09/27 06:37:36;;;;;;;0.13;0.13;;;;;;;11.28;100.00;101807.03;5113664;28;20027;-42
2023/09/27 06:40:07;;;;;;;0.20;0.20;;;;;;;11.36;100.00;101798.81;5113943;28;20515;-46
2023/09/27 06:42:32;;;;;;;0.10;0.10;;;;;;;11.48;100.00;101806.16;5112813;28;20019;-44
2023/09/27 06:44:58;;;;;;;0.20;0.20;;;;;;;11.58;100.00;101801.38;5113495;28;20027;-43
2023/09/27 06:47:24;;;;;;;0.10;0.10;;;;;;;11.71;100.00;101811.41;5112917;28;20024;-43
2023/09/27 06:49:49;;;;;;;0.20;0.20;;;;;;;11.84;100.00;101815.34;5113435;28;20031;-43
2023/09/27 06:52:14;;;;;;;0.20;0.20;;;;;;;11.96;100.00;101820.16;5112732;28;20024;-43
2023/09/27 06:54:40;;;;;;;0.20;0.20;;;;;;;12.07;100.00;101829.22;5112886;28;20080;-43
2023/09/27 06:57:06;;;;;;;0.20;0.20;;;;;;;12.13;100.00;101838.91;5113247;28;20566;-42
2023/09/27 06:59:31;;;;;;;0.10;0.10;;;;;;;12.21;100.00;101836.63;5113330;28;20111;-44
2023/09/27 07:01:57;;;;;;;0.10;0.10;;;;;;;12.31;100.00;101830.97;5112542;28;20031;-44
2023/09/27 07:04:22;;;;;;;0.20;0.20;;;;;;;12.31;100.00;101830.97;5113143;28;20042;-45
2023/09/27 07:06:47;;;;;;;0.10;0.10;;;;;;;12.43;100.00;101823.66;5113485;28;20023;-41
2023/09/27 07:09:16;;;;;;;0.10;0.10;;;;;;;12.55;100.00;101817.19;5112286;28;20463;-45
2023/09/27 07:11:44;;;;;;;0.10;0.10;;;;;;;12.62;100.00;101825.25;5113278;28;20036;-44
2023/09/27 07:14:09;;;;;;;0.00;0.00;;;;;;;12.63;100.00;101823.56;5113354;28;20039;-42
2023/09/27 07:16:35;;;;;;;0.10;0.10;;;;;;;12.61;100.00;101827.78;5112080;28;20466;-43
2023/09/27 07:19:00;;;;;;;0.10;0.10;;;;;;;12.64;100.00;101838.22;5113456;28;20035;-43
2023/09/27 07:21:26;;;;;;;0.20;0.20;;;;;;;12.62;100.00;101842.47;5113090;28;20090;-41
2023/09/27 07:23:52;;;;;;;0.10;0.10;;;;;;;12.63;100.00;101841.66;5112187;28;20115;-44
2023/09/27 07:26:18;;;;;;;0.10;0.10;;;;;;;12.63;100.00;101846.84;5112821;28;20031;-47
2023/09/27 07:28:45;;;;;;;0.10;0.10;;;;;;;12.63;100.00;101846.84;5113107;28;20030;-43
2023/09/27 07:31:12;;;;;;;0.20;0.20;;;;;;;12.67;100.00;101848.69;5112635;28;20042;-45
2023/09/27 07:33:38;;;;;;;0.10;0.10;;;;;;;12.66;100.00;101844.34;5112970;28;20474;-44
2023/09/27 07:36:04;;;;;;;0.10;0.10;;;;;;;12.71;100.00;101840.22;5113140;28;20126;-43
2023/09/27 07:38:30;;;;;;;0.10;0.10;;;;;;;12.70;100.00;101843.63;5112183;28;20031;-42
2023/09/27 07:40:55;;;;;;;0.10;0.10;;;;;;;12.75;100.00;101847.25;5113127;28;20032;-43
2023/09/27 07:43:20;;;;;;;0.10;0.10;;;;;;;12.80;100.00;101843.13;5112612;28;20020;-43
2023/09/27 07:45:47;;;;;;;0.10;0.10;;;;;;;12.83;100.00;101829.44;5112164;28;20432;-44
2023/09/27 07:48:12;;;;;;;0.10;0.10;;;;;;;12.89;100.00;101836.56;5113389;28;20027;-43
2023/09/27 07:50:38;;;;;;;0.20;0.20;;;;;;;12.97;100.00;101832.53;5113094;28;20016;-44
2023/09/27 07:53:11;;;;;;;0.10;0.10;;;;;;;13.05;100.00;101825.03;5112196;28;20103;-41
2023/09/27 07:55:43;;;;;;;0.20;0.20;;;;;;;13.13;100.00;101840.00;5112744;28;20023;-45
2023/09/27 07:58:09;;;;;;;0.10;0.10;;;;;;;13.26;100.00;101846.50;5111725;28;20051;-43
2023/09/27 08:00:35;;;;;;;0.10;0.10;;;;;;;13.41;100.00;101845.28;5112262;28;20575;-46
2023/09/27 08:03:02;;;;;;;0.10;0.10;;;;;;;13.40;100.00;101841.81;5113887;28;20027;-44
2023/09/27 08:05:27;;;;;;;0.20;0.20;;;;;;;13.56;100.00;101831.97;5115577;28;20383;-42
2023/09/27 08:07:53;;;;;;;0.10;0.10;;;;;;;13.68;100.00;101834.09;5116757;28;20024;-46
2023/09/27 08:10:19;;;;;;;0.10;0.10;;;;;;;13.85;100.00;101850.19;5116414;28;20031;-43
2023/09/27 08:12:45;;;;;;;0.15;0.15;;;;;;;14.04;100.00;101854.25;5115780;28;20098;-46
2023/09/27 08:15:12;;;;;;;0.10;0.10;;;;;;;14.22;100.00;101851.34;5116750;28;20038;-46
2023/09/27 08:17:38;;;;;;;;;;;;;;;14.32;100.00;101850.78;5117099;28;20016;-43
2023/09/27 08:20:12;;;;;;;0.10;0.10;;;;;;;14.32;100.00;101851.66;5115800;28;19933;-44
2023/09/27 08:22:41;;;;;;;0.10;0.10;;;;;;;14.46;100.00;101859.84;5116374;28;20035;-46
2023/09/27 08:25:14;;;;;;;0.10;0.10;;;;;;;14.57;100.00;101870.53;5116217;28;20024;-44
2023/09/27 08:27:41;;;;;;;0.10;0.10;;;;;;;14.71;100.00;101872.72;5115388;28;20437;-42
2023/09/27 08:30:07;;;;;;;0.10;0.10;;;;;;;14.83;100.00;101878.25;5116385;28;20073;-44
2023/09/27 08:32:34;;;;;;;0.10;0.10;;;;;;;15.05;100.00;101877.13;5116063;28;20028;-46
2023/09/27 08:35:00;;;;;;;0.10;0.10;;;;;;;15.47;100.00;101871.31;5115355;28;20421;-44
2023/09/27 08:37:25;;;;;;;0.10;0.10;;;;;;;15.51;100.00;101866.22;5115799;28;20459;-45
2023/09/27 08:39:50;;;;;;;0.10;0.10;;;;;;;15.73;100.00;101873.69;5115941;28;20043;-44
2023/09/27 08:42:16;;;;;;;0.10;0.10;;;;;;;15.90;100.00;101886.28;5115060;28;20139;-44
2023/09/27 08:44:43;;;;;;;0.10;0.10;;;;;;;16.08;100.00;101880.63;5116065;28;20032;-45
2023/09/27 08:47:09;;;;;;;0.10;0.10;;;;;;;16.30;100.00;101876.78;5115114;28;20016;-41
2023/09/27 08:49:35;;;;;;;0.00;0.00;;;;;;;16.42;100.00;101871.88;5115587;28;20085;-43
2023/09/27 08:52:02;;;;;;;0.10;0.10;;;;;;;16.44;100.00;101862.34;5115870;28;20387;-44
2023/09/27 08:54:27;;;;;;;0.10;0.10;;;;;;;16.63;100.00;101865.38;5114588;28;20023;-42
2023/09/27 08:56:53;;;;;;;0.10;0.10;;;;;;;16.65;100.00;101868.00;5115560;28;20082;-45
2023/09/27 08:59:20;;;;;;;0.00;0.00;;;;;;;16.87;100.00;101858.91;5115579;28;20028;-44
2023/09/27 09:01:46;;;;;;;0.10;0.10;;;;;;;17.16;100.00;101869.00;5114860;28;20442;-43
2023/09/27 09:04:12;;;;;;;0.10;0.10;;;;;;;17.58;100.00;101860.22;5115285;28;20084;-41
2023/09/27 09:06:40;;;;;;;0.10;0.10;;;;;;;18.15;100.00;101862.88;5115596;28;20020;-45
2023/09/27 09:09:10;;;;;;;0.03;0.03;;;;;;;18.48;100.00;101864.19;5114830;28;20027;-43
2023/09/27 09:11:47;;;;;;;0.00;0.00;;;;;;;18.42;100.00;101863.25;5115592;28;20024;-44
2023/09/27 09:14:17;;;;;;;0.10;0.10;;;;;;;18.87;100.00;101862.94;5114878;28;20035;-44
2023/09/27 09:16:50;;;;;;;0.00;0.00;;;;;;;19.18;100.00;101853.69;5114370;28;20064;-41
2023/09/27 09:19:22;;;;;;;0.00;0.00;;;;;;;19.27;100.00;101855.53;5114890;28;20512;-45
2023/09/27 09:21:58;;;;;;;0.10;0.10;;;;;;;19.33;100.00;101858.22;5115559;28;20026;-42
2023/09/27 09:24:24;;;;;;;0.00;0.00;;;;;;;19.36;100.00;101853.00;5114316;28;20051;-46
2023/09/27 09:27:13;;;;;;;0.00;0.00;;;;;;;19.16;100.00;101851.94;5115198;28;20483;-45
2023/09/27 09:29:52;;;;;;;0.00;0.00;;;;;;;18.92;100.00;101848.22;5114340;28;20026;-42
2023/09/27 09:32:20;;;;;;;0.00;0.00;;;;;;;18.94;100.00;101846.50;5115024;28;20100;-41
2023/09/27 09:34:50;;;;;;;0.00;0.00;;;;;;;19.05;100.00;101849.22;5114954;28;20467;-45
2023/09/27 09:37:17;;;;;;;0.00;0.00;;;;;;;19.23;100.00;101843.31;5113813;28;20424;-43
2023/09/27 09:39:44;;;;;;;0.10;0.10;;;;;;;19.65;100.00;101844.56;5114963;28;20031;-42
2023/09/27 09:42:09;;;;;;;0.00;0.00;;;;;;;19.74;100.00;101841.09;5114845;28;20467;-46
2023/09/27 09:44:35;;;;;;;0.00;0.00;;;;;;;19.74;100.00;101838.50;5113833;28;20030;-44
2023/09/27 09:47:11;;;;;;;0.00;0.00;;;;;;;20.25;100.00;101831.00;5115156;28;20098;-42
2023/09/27 09:49:37;;;;;;;0.10;0.10;;;;;;;21.03;100.00;101830.44;5114695;28;20042;-42
2023/09/27 09:52:06;;;;;;;0.00;0.00;;;;;;;21.65;100.00;101830.50;5113957;28;20103;-43
2023/09/27 09:54:37;;;;;;;0.00;0.00;;;;;;;21.61;99.16;101818.22;5114357;28;20067;-44
2023/09/27 09:57:05;;;;;;;0.00;0.00;;;;;;;21.86;93.28;101812.97;5114349;28;20398;-41
2023/09/27 09:59:38;;;;;;;0.03;0.03;;;;;;;21.92;94.76;101805.06;5113437;28;20374;-42
2023/09/27 10:02:17;;;;;;;0.00;0.00;;;;;;;22.11;89.50;101803.28;5114557;28;20419;-46
2023/09/27 10:04:43;;;;;;;0.00;0.00;;;;;;;22.56;90.15;101805.75;5113594;28;20120;-45
2023/09/27 10:07:09;;;;;;;0.10;0.10;;;;;;;23.41;84.68;101809.56;5114319;28;20148;-45
2023/09/27 10:09:35;;;;;;;0.00;0.00;;;;;;;23.58;79.03;101801.56;5114342;28;20061;-45
2023/09/27 10:12:01;;;;;;;0.00;0.00;;;;;;;23.20;78.82;101800.97;5113856;28;20051;-43
2023/09/27 10:14:28;;;;;;;0.00;0.00;;;;;;;23.06;77.98;101798.44;5114062;28;20023;-44
2023/09/27 10:16:54;;;;;;;0.00;0.00;;;;;;;23.33;76.61;101799.13;5114173;28;20019;-44
2023/09/27 10:19:28;;;;;;;0.05;0.05;;;;;;;22.97;75.88;101812.53;5113165;28;20028;-45
2023/09/27 10:22:04;;;;;;;0.00;0.00;;;;;;;22.96;79.36;101813.41;5114009;28;20020;-45
2023/09/27 10:24:29;;;;;;;0.00;0.00;;;;;;;23.38;74.40;101821.00;5113915;28;20028;-44
2023/09/27 10:26:54;;;;;;;0.00;0.00;;;;;;;23.58;70.41;101814.72;5112381;28;20023;-44
2023/09/27 10:29:21;;;;;;;0.00;0.00;;;;;;;24.38;71.91;101805.09;5113547;28;20038;-42
2023/09/27 10:31:56;;;;;;;0.00;0.00;;;;;;;24.16;70.13;101797.44;5113922;28;20460;-43
2023/09/27 10:34:33;;;;;;;0.00;0.00;;;;;;;23.59;70.24;101785.75;5112587;28;20383;-46
2023/09/27 10:37:00;;;;;;;0.00;0.00;;;;;;;23.02;73.55;101783.56;5114052;28;20024;-42
2023/09/27 10:39:25;;;;;;;0.00;0.00;;;;;;;22.95;73.34;101781.88;5113727;28;20023;-46
2023/09/27 10:41:53;;;;;;;0.00;0.00;;;;;;;22.77;74.87;101772.34;5113114;28;20126;-45
2023/09/27 10:44:30;;;;;;;0.00;0.00;;;;;;;22.95;78.07;101782.72;5113418;28;20039;-43
2023/09/27 10:47:00;;;;;;;0.00;0.00;;;;;;;23.00;73.50;101775.69;5112798;28;20023;-44
2023/09/27 10:49:30;;;;;;;0.00;0.00;;;;;;;23.07;72.44;101773.00;5113531;28;20059;-46
2023/09/27 10:51:56;;;;;;;0.00;0.00;;;;;;;23.23;71.51;101764.16;5113649;28;20063;-44
2023/09/27 10:54:26;;;;;;;0.00;0.00;;;;;;;23.16;70.40;101754.56;5112436;28;20444;-46
2023/09/27 10:56:53;;;;;;;0.00;0.00;;;;;;;23.10;72.10;101744.06;5113311;28;20058;-44
2023/09/27 10:59:26;;;;;;;0.00;0.00;;;;;;;23.22;73.29;101738.72;5113155;28;20471;-41
2023/09/27 11:01:52;;;;;;;0.00;0.00;;;;;;;23.49;71.02;101742.84;5112832;28;20043;-45
2023/09/27 11:04:24;;;;;;;0.00;0.00;;;;;;;23.28;71.43;101749.19;5112829;28;20104;-45
2023/09/27 11:06:50;;;;;;;0.00;0.00;;;;;;;23.05;69.49;101745.84;5113451;28;20019;-46
2023/09/27 11:09:19;;;;;;;0.00;0.00;;;;;;;23.02;70.85;101747.63;5112164;28;20024;-42
2023/09/27 11:11:49;;;;;;;0.00;0.00;;;;;;;23.32;69.29;101743.03;5113307;28;20023;-42
2023/09/27 11:14:33;;;;;;;0.00;0.00;;;;;;;23.59;73.21;101733.13;5113167;28;20026;-45
2023/09/27 11:17:25;;;;;;;0.00;0.00;;;;;;;23.10;71.17;101734.44;5112568;28;20059;-44